sensor_id;sensor_type;location;lat;lon;timestamp;P1;durP1;ratioP1;P2;durP2;ratioP2
15629;SDS011;7914;50.842;0.166;2023-01-06T00:00:16;7.30;;;7.00;;
15629;SDS011;7914;50.842;0.166;2023-01-06T00:02:42;6.63;;;6.33;;
15629;SDS011;7914;50.842;0.166;2023-01-06T00:05:11;7.00;;;6.70;;
15629;SDS011;7914;50.842;0.166;2023-01-06T00:07:36;6.53;;;6.27;;
15629;SDS011;7914;50.842;0.166;2023-01-06T00:10:03;6.37;;;6.17;;
15629;SDS011;7914;50.842;0.166;2023-01-06T00:12:29;6.10;;;5.90;;
15629;SDS011;7914;50.842;0.166;2023-01-06T00:14:55;6.10;;;5.90;;
15629;SDS011;7914;50.842;0.166;2023-01-06T00:17:21;5.87;;;5.67;;
15629;SDS011;7914;50.842;0.166;2023-01-06T00:19:46;5.63;;;5.43;;
15629;SDS011;7914;50.842;0.166;2023-01-06T00:22:12;5.30;;;5.10;;
15629;SDS011;7914;50.842;0.166;2023-01-06T00:24:38;5.17;;;4.97;;
15629;SDS011;7914;50.842;0.166;2023-01-06T00:27:03;5.23;;;5.03;;
15629;SDS011;7914;50.842;0.166;2023-01-06T00:29:29;4.77;;;4.57;;
15629;SDS011;7914;50.842;0.166;2023-01-06T00:31:57;4.10;;;4.00;;
15629;SDS011;7914;50.842;0.166;2023-01-06T00:34:24;4.10;;;4.00;;
15629;SDS011;7914;50.842;0.166;2023-01-06T00:36:49;3.93;;;3.83;;
15629;SDS011;7914;50.842;0.166;2023-01-06T00:39:15;4.00;;;3.90;;
15629;SDS011;7914;50.842;0.166;2023-01-06T00:41:41;4.43;;;4.23;;
15629;SDS011;7914;50.842;0.166;2023-01-06T00:44:25;3.93;;;3.83;;
15629;SDS011;7914;50.842;0.166;2023-01-06T00:46:51;3.90;;;3.80;;
15629;SDS011;7914;50.842;0.166;2023-01-06T00:49:16;3.90;;;3.80;;
15629;SDS011;7914;50.842;0.166;2023-01-06T00:51:42;3.87;;;3.77;;
15629;SDS011;7914;50.842;0.166;2023-01-06T00:54:10;4.30;;;4.10;;
15629;SDS011;7914;50.842;0.166;2023-01-06T00:56:37;4.33;;;4.13;;
15629;SDS011;7914;50.842;0.166;2023-01-06T00:59:04;3.90;;;3.80;;
15629;SDS011;7914;50.842;0.166;2023-01-06T01:01:31;3.90;;;3.80;;
15629;SDS011;7914;50.842;0.166;2023-01-06T01:03:57;4.00;;;3.90;;
15629;SDS011;7914;50.842;0.166;2023-01-06T01:06:23;4.00;;;3.90;;
15629;SDS011;7914;50.842;0.166;2023-01-06T01:08:56;4.10;;;4.00;;
15629;SDS011;7914;50.842;0.166;2023-01-06T01:11:23;4.03;;;3.93;;
15629;SDS011;7914;50.842;0.166;2023-01-06T01:14:08;4.90;;;4.70;;
15629;SDS011;7914;50.842;0.166;2023-01-06T01:16:35;5.37;;;5.17;;
15629;SDS011;7914;50.842;0.166;2023-01-06T01:19:01;5.93;;;5.73;;
15629;SDS011;7914;50.842;0.166;2023-01-06T01:21:26;6.70;;;6.40;;
15629;SDS011;7914;50.842;0.166;2023-01-06T01:23:52;6.60;;;6.30;;
15629;SDS011;7914;50.842;0.166;2023-01-06T01:26:18;6.20;;;6.00;;
15629;SDS011;7914;50.842;0.166;2023-01-06T01:28:44;5.40;;;5.20;;
15629;SDS011;7914;50.842;0.166;2023-01-06T01:31:10;4.97;;;4.77;;
15629;SDS011;7914;50.842;0.166;2023-01-06T01:33:37;5.40;;;5.20;;
15629;SDS011;7914;50.842;0.166;2023-01-06T01:36:07;5.17;;;4.97;;
15629;SDS011;7914;50.842;0.166;2023-01-06T01:38:34;4.93;;;4.73;;
15629;SDS011;7914;50.842;0.166;2023-01-06T01:41:00;5.00;;;4.80;;
15629;SDS011;7914;50.842;0.166;2023-01-06T01:46:13;4.60;;;4.40;;
15629;SDS011;7914;50.842;0.166;2023-01-06T01:48:43;4.20;;;4.10;;
15629;SDS011;7914;50.842;0.166;2023-01-06T01:51:10;4.53;;;4.33;;
15629;SDS011;7914;50.842;0.166;2023-01-06T01:53:41;5.10;;;4.90;;
15629;SDS011;7914;50.842;0.166;2023-01-06T01:56:13;5.33;;;5.13;;
15629;SDS011;7914;50.842;0.166;2023-01-06T02:01:42;5.47;;;5.27;;
15629;SDS011;7914;50.842;0.166;2023-01-06T02:04:08;5.60;;;5.40;;
15629;SDS011;7914;50.842;0.166;2023-01-06T02:06:34;5.70;;;5.50;;
15629;SDS011;7914;50.842;0.166;2023-01-06T02:09:03;7.13;;;6.83;;
15629;SDS011;7914;50.842;0.166;2023-01-06T02:11:35;7.80;;;7.50;;
15629;SDS011;7914;50.842;0.166;2023-01-06T02:14:23;8.03;;;7.73;;
15629;SDS011;7914;50.842;0.166;2023-01-06T02:16:56;8.07;;;7.77;;
15629;SDS011;7914;50.842;0.166;2023-01-06T02:33:37;13.23;;;12.63;;
15629;SDS011;7914;50.842;0.166;2023-01-06T02:36:32;15.53;;;14.83;;
15629;SDS011;7914;50.842;0.166;2023-01-06T02:47:14;16.70;;;15.90;;
15629;SDS011;7914;50.842;0.166;2023-01-06T02:52:52;16.40;;;15.60;;
15629;SDS011;7914;50.842;0.166;2023-01-06T02:55:34;17.10;;;16.30;;
15629;SDS011;7914;50.842;0.166;2023-01-06T03:00:44;16.83;;;16.03;;
15629;SDS011;7914;50.842;0.166;2023-01-06T03:03:23;16.93;;;16.13;;
15629;SDS011;7914;50.842;0.166;2023-01-06T03:05:53;16.90;;;16.10;;
15629;SDS011;7914;50.842;0.166;2023-01-06T03:08:24;16.73;;;15.93;;
15629;SDS011;7914;50.842;0.166;2023-01-06T03:10:52;16.43;;;15.63;;
15629;SDS011;7914;50.842;0.166;2023-01-06T03:16:22;16.90;;;16.10;;
15629;SDS011;7914;50.842;0.166;2023-01-06T03:18:48;17.10;;;16.30;;
15629;SDS011;7914;50.842;0.166;2023-01-06T03:21:16;17.47;;;16.67;;
15629;SDS011;7914;50.842;0.166;2023-01-06T03:23:45;17.50;;;16.70;;
15629;SDS011;7914;50.842;0.166;2023-01-06T03:26:11;18.37;;;17.47;;
15629;SDS011;7914;50.842;0.166;2023-01-06T03:28:37;18.00;;;17.10;;
15629;SDS011;7914;50.842;0.166;2023-01-06T03:31:06;17.53;;;16.73;;
15629;SDS011;7914;50.842;0.166;2023-01-06T03:33:55;18.00;;;17.10;;
15629;SDS011;7914;50.842;0.166;2023-01-06T03:39:34;17.57;;;16.77;;
15629;SDS011;7914;50.842;0.166;2023-01-06T03:50:56;17.27;;;16.47;;
15629;SDS011;7914;50.842;0.166;2023-01-06T03:53:37;15.70;;;15.00;;
15629;SDS011;7914;50.842;0.166;2023-01-06T03:56:19;15.47;;;14.77;;
15629;SDS011;7914;50.842;0.166;2023-01-06T03:58:50;15.37;;;14.67;;
15629;SDS011;7914;50.842;0.166;2023-01-06T04:01:28;15.53;;;14.83;;
15629;SDS011;7914;50.842;0.166;2023-01-06T04:03:54;15.33;;;14.63;;
15629;SDS011;7914;50.842;0.166;2023-01-06T04:06:20;14.10;;;13.50;;
15629;SDS011;7914;50.842;0.166;2023-01-06T04:08:46;14.67;;;14.07;;
15629;SDS011;7914;50.842;0.166;2023-01-06T04:11:13;14.40;;;13.80;;
15629;SDS011;7914;50.842;0.166;2023-01-06T04:13:57;14.40;;;13.80;;
15629;SDS011;7914;50.842;0.166;2023-01-06T04:16:23;13.77;;;13.17;;
15629;SDS011;7914;50.842;0.166;2023-01-06T04:18:49;12.57;;;12.07;;
15629;SDS011;7914;50.842;0.166;2023-01-06T04:21:14;13.07;;;12.47;;
15629;SDS011;7914;50.842;0.166;2023-01-06T04:23:40;11.73;;;11.23;;
15629;SDS011;7914;50.842;0.166;2023-01-06T04:26:06;12.70;;;12.20;;
15629;SDS011;7914;50.842;0.166;2023-01-06T04:28:31;12.87;;;12.33;;
15629;SDS011;7914;50.842;0.166;2023-01-06T04:30:57;12.10;;;11.60;;
15629;SDS011;7914;50.842;0.166;2023-01-06T04:33:24;11.47;;;10.97;;
15629;SDS011;7914;50.842;0.166;2023-01-06T04:35:49;11.33;;;10.83;;
15629;SDS011;7914;50.842;0.166;2023-01-06T04:38:15;12.23;;;11.73;;
15629;SDS011;7914;50.842;0.166;2023-01-06T04:40:41;11.60;;;11.10;;
15629;SDS011;7914;50.842;0.166;2023-01-06T04:43:07;11.30;;;10.80;;
15629;SDS011;7914;50.842;0.166;2023-01-06T04:45:38;10.27;;;9.87;;
15629;SDS011;7914;50.842;0.166;2023-01-06T04:48:04;9.23;;;8.83;;
15629;SDS011;7914;50.842;0.166;2023-01-06T04:50:30;9.07;;;8.67;;
15629;SDS011;7914;50.842;0.166;2023-01-06T04:52:56;9.80;;;9.40;;
15629;SDS011;7914;50.842;0.166;2023-01-06T04:55:22;8.53;;;8.23;;
15629;SDS011;7914;50.842;0.166;2023-01-06T04:57:48;8.83;;;8.43;;
15629;SDS011;7914;50.842;0.166;2023-01-06T05:00:13;7.73;;;7.43;;
15629;SDS011;7914;50.842;0.166;2023-01-06T05:02:39;6.23;;;6.03;;
15629;SDS011;7914;50.842;0.166;2023-01-06T05:05:05;6.10;;;5.90;;
15629;SDS011;7914;50.842;0.166;2023-01-06T05:07:31;5.70;;;5.50;;
15629;SDS011;7914;50.842;0.166;2023-01-06T05:09:57;4.57;;;4.37;;
15629;SDS011;7914;50.842;0.166;2023-01-06T05:12:23;5.10;;;4.90;;
15629;SDS011;7914;50.842;0.166;2023-01-06T05:14:48;4.57;;;4.37;;
15629;SDS011;7914;50.842;0.166;2023-01-06T05:17:14;4.93;;;4.73;;
15629;SDS011;7914;50.842;0.166;2023-01-06T05:19:40;4.50;;;4.30;;
15629;SDS011;7914;50.842;0.166;2023-01-06T05:22:07;3.90;;;3.80;;
15629;SDS011;7914;50.842;0.166;2023-01-06T05:24:33;4.60;;;4.40;;
15629;SDS011;7914;50.842;0.166;2023-01-06T05:26:58;4.13;;;4.03;;
15629;SDS011;7914;50.842;0.166;2023-01-06T05:29:24;4.77;;;4.57;;
15629;SDS011;7914;50.842;0.166;2023-01-06T05:31:50;4.10;;;4.00;;
15629;SDS011;7914;50.842;0.166;2023-01-06T05:34:15;3.90;;;3.80;;
15629;SDS011;7914;50.842;0.166;2023-01-06T05:36:41;4.00;;;3.90;;
15629;SDS011;7914;50.842;0.166;2023-01-06T05:39:06;3.67;;;3.57;;
15629;SDS011;7914;50.842;0.166;2023-01-06T05:41:32;3.73;;;3.63;;
15629;SDS011;7914;50.842;0.166;2023-01-06T05:43:58;3.27;;;3.17;;
15629;SDS011;7914;50.842;0.166;2023-01-06T05:46:23;3.53;;;3.43;;
15629;SDS011;7914;50.842;0.166;2023-01-06T05:48:49;3.33;;;3.23;;
15629;SDS011;7914;50.842;0.166;2023-01-06T05:51:15;3.50;;;3.40;;
15629;SDS011;7914;50.842;0.166;2023-01-06T05:53:42;3.50;;;3.40;;
15629;SDS011;7914;50.842;0.166;2023-01-06T05:56:10;3.60;;;3.50;;
15629;SDS011;7914;50.842;0.166;2023-01-06T05:58:38;3.07;;;2.97;;
15629;SDS011;7914;50.842;0.166;2023-01-06T06:01:04;3.23;;;3.13;;
15629;SDS011;7914;50.842;0.166;2023-01-06T06:03:31;4.00;;;3.90;;
15629;SDS011;7914;50.842;0.166;2023-01-06T06:06:01;3.70;;;3.60;;
15629;SDS011;7914;50.842;0.166;2023-01-06T06:08:28;3.00;;;2.90;;
15629;SDS011;7914;50.842;0.166;2023-01-06T06:10:54;3.40;;;3.30;;
15629;SDS011;7914;50.842;0.166;2023-01-06T06:13:19;3.60;;;3.50;;
15629;SDS011;7914;50.842;0.166;2023-01-06T06:15:45;2.97;;;2.87;;
15629;SDS011;7914;50.842;0.166;2023-01-06T06:18:11;3.00;;;2.90;;
15629;SDS011;7914;50.842;0.166;2023-01-06T06:20:36;3.07;;;2.97;;
15629;SDS011;7914;50.842;0.166;2023-01-06T06:23:02;3.00;;;2.90;;
15629;SDS011;7914;50.842;0.166;2023-01-06T06:25:27;3.00;;;2.90;;
15629;SDS011;7914;50.842;0.166;2023-01-06T06:27:57;3.40;;;3.30;;
15629;SDS011;7914;50.842;0.166;2023-01-06T06:30:23;3.30;;;3.20;;
15629;SDS011;7914;50.842;0.166;2023-01-06T06:32:49;3.20;;;3.10;;
15629;SDS011;7914;50.842;0.166;2023-01-06T06:35:14;2.63;;;2.53;;
15629;SDS011;7914;50.842;0.166;2023-01-06T06:37:40;3.10;;;3.00;;
15629;SDS011;7914;50.842;0.166;2023-01-06T06:40:06;3.20;;;3.10;;
15629;SDS011;7914;50.842;0.166;2023-01-06T06:42:32;2.70;;;2.60;;
15629;SDS011;7914;50.842;0.166;2023-01-06T06:44:57;2.87;;;2.77;;
15629;SDS011;7914;50.842;0.166;2023-01-06T06:47:23;3.30;;;3.20;;
15629;SDS011;7914;50.842;0.166;2023-01-06T06:49:49;2.83;;;2.73;;
15629;SDS011;7914;50.842;0.166;2023-01-06T06:52:15;3.07;;;2.97;;
15629;SDS011;7914;50.842;0.166;2023-01-06T06:54:40;3.00;;;2.90;;
15629;SDS011;7914;50.842;0.166;2023-01-06T06:57:06;2.80;;;2.70;;
15629;SDS011;7914;50.842;0.166;2023-01-06T06:59:32;3.23;;;3.13;;
15629;SDS011;7914;50.842;0.166;2023-01-06T07:01:57;2.50;;;2.40;;
15629;SDS011;7914;50.842;0.166;2023-01-06T07:04:23;2.97;;;2.87;;
15629;SDS011;7914;50.842;0.166;2023-01-06T07:06:49;2.43;;;2.33;;
15629;SDS011;7914;50.842;0.166;2023-01-06T07:09:14;2.40;;;2.30;;
15629;SDS011;7914;50.842;0.166;2023-01-06T07:11:40;2.80;;;2.70;;
15629;SDS011;7914;50.842;0.166;2023-01-06T07:14:05;2.70;;;2.60;;
15629;SDS011;7914;50.842;0.166;2023-01-06T07:16:31;2.77;;;2.67;;
15629;SDS011;7914;50.842;0.166;2023-01-06T07:18:57;3.40;;;3.30;;
15629;SDS011;7914;50.842;0.166;2023-01-06T07:21:22;3.23;;;3.13;;
15629;SDS011;7914;50.842;0.166;2023-01-06T07:23:48;3.13;;;3.03;;
15629;SDS011;7914;50.842;0.166;2023-01-06T07:26:14;2.50;;;2.40;;
15629;SDS011;7914;50.842;0.166;2023-01-06T07:28:40;2.77;;;2.67;;
15629;SDS011;7914;50.842;0.166;2023-01-06T07:31:06;2.70;;;2.60;;
15629;SDS011;7914;50.842;0.166;2023-01-06T07:33:31;3.10;;;3.00;;
15629;SDS011;7914;50.842;0.166;2023-01-06T07:35:57;3.20;;;3.10;;
15629;SDS011;7914;50.842;0.166;2023-01-06T07:38:23;2.90;;;2.80;;
15629;SDS011;7914;50.842;0.166;2023-01-06T07:40:49;2.93;;;2.83;;
15629;SDS011;7914;50.842;0.166;2023-01-06T07:43:16;2.80;;;2.70;;
15629;SDS011;7914;50.842;0.166;2023-01-06T07:45:41;2.70;;;2.60;;
15629;SDS011;7914;50.842;0.166;2023-01-06T07:48:09;2.60;;;2.50;;
15629;SDS011;7914;50.842;0.166;2023-01-06T07:50:35;2.93;;;2.83;;
15629;SDS011;7914;50.842;0.166;2023-01-06T07:53:01;2.80;;;2.70;;
15629;SDS011;7914;50.842;0.166;2023-01-06T07:55:27;2.93;;;2.83;;
15629;SDS011;7914;50.842;0.166;2023-01-06T07:57:54;2.60;;;2.50;;
15629;SDS011;7914;50.842;0.166;2023-01-06T08:00:20;2.70;;;2.60;;
15629;SDS011;7914;50.842;0.166;2023-01-06T08:02:46;2.70;;;2.60;;
15629;SDS011;7914;50.842;0.166;2023-01-06T08:05:12;3.47;;;3.37;;
15629;SDS011;7914;50.842;0.166;2023-01-06T08:07:37;2.90;;;2.80;;
15629;SDS011;7914;50.842;0.166;2023-01-06T08:10:03;2.97;;;2.87;;
15629;SDS011;7914;50.842;0.166;2023-01-06T08:12:29;3.10;;;3.00;;
15629;SDS011;7914;50.842;0.166;2023-01-06T08:14:55;2.67;;;2.57;;
15629;SDS011;7914;50.842;0.166;2023-01-06T08:17:20;2.83;;;2.73;;
15629;SDS011;7914;50.842;0.166;2023-01-06T08:19:46;2.40;;;2.30;;
15629;SDS011;7914;50.842;0.166;2023-01-06T08:22:12;2.60;;;2.50;;
15629;SDS011;7914;50.842;0.166;2023-01-06T08:24:37;2.33;;;2.23;;
15629;SDS011;7914;50.842;0.166;2023-01-06T08:27:03;3.00;;;2.90;;
15629;SDS011;7914;50.842;0.166;2023-01-06T08:29:28;2.90;;;2.80;;
15629;SDS011;7914;50.842;0.166;2023-01-06T08:31:54;3.10;;;3.00;;
15629;SDS011;7914;50.842;0.166;2023-01-06T08:34:20;2.87;;;2.77;;
15629;SDS011;7914;50.842;0.166;2023-01-06T08:36:45;2.87;;;2.77;;
15629;SDS011;7914;50.842;0.166;2023-01-06T08:39:11;2.60;;;2.50;;
15629;SDS011;7914;50.842;0.166;2023-01-06T08:41:38;2.97;;;2.87;;
15629;SDS011;7914;50.842;0.166;2023-01-06T08:44:04;2.63;;;2.53;;
15629;SDS011;7914;50.842;0.166;2023-01-06T08:46:31;3.00;;;2.90;;
15629;SDS011;7914;50.842;0.166;2023-01-06T08:48:57;2.60;;;2.50;;
15629;SDS011;7914;50.842;0.166;2023-01-06T08:51:23;3.60;;;3.50;;
15629;SDS011;7914;50.842;0.166;2023-01-06T08:53:50;2.73;;;2.63;;
15629;SDS011;7914;50.842;0.166;2023-01-06T08:56:21;3.00;;;2.90;;
15629;SDS011;7914;50.842;0.166;2023-01-06T08:59:07;3.60;;;3.50;;
15629;SDS011;7914;50.842;0.166;2023-01-06T09:01:36;3.40;;;3.30;;
15629;SDS011;7914;50.842;0.166;2023-01-06T09:04:03;3.00;;;2.90;;
15629;SDS011;7914;50.842;0.166;2023-01-06T09:06:30;3.00;;;2.90;;
15629;SDS011;7914;50.842;0.166;2023-01-06T09:08:56;3.60;;;3.50;;
15629;SDS011;7914;50.842;0.166;2023-01-06T09:11:22;3.53;;;3.43;;
15629;SDS011;7914;50.842;0.166;2023-01-06T09:13:48;3.33;;;3.23;;
15629;SDS011;7914;50.842;0.166;2023-01-06T09:16:16;3.40;;;3.30;;
15629;SDS011;7914;50.842;0.166;2023-01-06T09:18:42;3.00;;;2.90;;
15629;SDS011;7914;50.842;0.166;2023-01-06T09:21:12;3.80;;;3.70;;
15629;SDS011;7914;50.842;0.166;2023-01-06T09:23:38;3.67;;;3.57;;
15629;SDS011;7914;50.842;0.166;2023-01-06T09:26:04;4.50;;;4.30;;
15629;SDS011;7914;50.842;0.166;2023-01-06T09:28:30;3.40;;;3.30;;
15629;SDS011;7914;50.842;0.166;2023-01-06T09:30:56;4.63;;;4.43;;
15629;SDS011;7914;50.842;0.166;2023-01-06T09:33:22;3.53;;;3.43;;
15629;SDS011;7914;50.842;0.166;2023-01-06T09:35:48;3.57;;;3.47;;
15629;SDS011;7914;50.842;0.166;2023-01-06T09:38:15;3.70;;;3.60;;
15629;SDS011;7914;50.842;0.166;2023-01-06T09:46:03;3.43;;;3.33;;
15629;SDS011;7914;50.842;0.166;2023-01-06T09:48:32;3.23;;;3.13;;
15629;SDS011;7914;50.842;0.166;2023-01-06T09:51:06;3.40;;;3.30;;
15629;SDS011;7914;50.842;0.166;2023-01-06T09:53:41;3.53;;;3.43;;
15629;SDS011;7914;50.842;0.166;2023-01-06T09:56:14;4.00;;;3.90;;
15629;SDS011;7914;50.842;0.166;2023-01-06T10:01:13;3.63;;;3.53;;
15629;SDS011;7914;50.842;0.166;2023-01-06T10:03:42;3.27;;;3.17;;
15629;SDS011;7914;50.842;0.166;2023-01-06T10:11:46;3.77;;;3.67;;
15629;SDS011;7914;50.842;0.166;2023-01-06T10:14:24;3.60;;;3.50;;
15629;SDS011;7914;50.842;0.166;2023-01-06T10:17:14;3.40;;;3.30;;
15629;SDS011;7914;50.842;0.166;2023-01-06T10:19:57;3.70;;;3.60;;
15629;SDS011;7914;50.842;0.166;2023-01-06T10:25:44;3.07;;;2.97;;
15629;SDS011;7914;50.842;0.166;2023-01-06T10:31:11;3.10;;;3.00;;
15629;SDS011;7914;50.842;0.166;2023-01-06T10:33:51;3.23;;;3.13;;
15629;SDS011;7914;50.842;0.166;2023-01-06T10:36:29;3.20;;;3.10;;
15629;SDS011;7914;50.842;0.166;2023-01-06T10:39:02;3.07;;;2.97;;
15629;SDS011;7914;50.842;0.166;2023-01-06T10:44:47;3.10;;;3.00;;
15629;SDS011;7914;50.842;0.166;2023-01-06T10:47:27;3.10;;;3.00;;
15629;SDS011;7914;50.842;0.166;2023-01-06T10:49:54;2.60;;;2.50;;
15629;SDS011;7914;50.842;0.166;2023-01-06T10:52:21;2.70;;;2.60;;
15629;SDS011;7914;50.842;0.166;2023-01-06T10:54:52;2.43;;;2.33;;
15629;SDS011;7914;50.842;0.166;2023-01-06T10:57:22;2.40;;;2.30;;
15629;SDS011;7914;50.842;0.166;2023-01-06T11:02:50;2.20;;;2.10;;
15629;SDS011;7914;50.842;0.166;2023-01-06T11:05:26;2.20;;;2.10;;
15629;SDS011;7914;50.842;0.166;2023-01-06T11:08:05;2.20;;;2.10;;
15629;SDS011;7914;50.842;0.166;2023-01-06T11:10:37;1.97;;;1.90;;
15629;SDS011;7914;50.842;0.166;2023-01-06T11:13:19;2.00;;;1.90;;
15629;SDS011;7914;50.842;0.166;2023-01-06T11:16:06;1.93;;;1.90;;
15629;SDS011;7914;50.842;0.166;2023-01-06T11:19:02;2.10;;;2.00;;
15629;SDS011;7914;50.842;0.166;2023-01-06T11:21:36;2.13;;;2.03;;
15629;SDS011;7914;50.842;0.166;2023-01-06T11:24:08;2.30;;;2.20;;
15629;SDS011;7914;50.842;0.166;2023-01-06T11:31:55;2.20;;;2.10;;
15629;SDS011;7914;50.842;0.166;2023-01-06T11:34:25;2.00;;;1.90;;
15629;SDS011;7914;50.842;0.166;2023-01-06T11:36:54;2.10;;;2.00;;
15629;SDS011;7914;50.842;0.166;2023-01-06T11:39:29;2.10;;;2.00;;
15629;SDS011;7914;50.842;0.166;2023-01-06T11:42:02;2.33;;;2.23;;
15629;SDS011;7914;50.842;0.166;2023-01-06T11:44:35;1.90;;;1.90;;
15629;SDS011;7914;50.842;0.166;2023-01-06T11:47:15;2.00;;;1.90;;
15629;SDS011;7914;50.842;0.166;2023-01-06T11:49:49;1.60;;;1.60;;
15629;SDS011;7914;50.842;0.166;2023-01-06T11:52:19;1.70;;;1.70;;
15629;SDS011;7914;50.842;0.166;2023-01-06T11:58:07;1.70;;;1.70;;
15629;SDS011;7914;50.842;0.166;2023-01-06T12:00:46;1.60;;;1.60;;
15629;SDS011;7914;50.842;0.166;2023-01-06T12:11:13;1.70;;;1.70;;
15629;SDS011;7914;50.842;0.166;2023-01-06T12:13:45;1.80;;;1.80;;
15629;SDS011;7914;50.842;0.166;2023-01-06T12:16:24;1.70;;;1.70;;
15629;SDS011;7914;50.842;0.166;2023-01-06T12:18:52;1.70;;;1.70;;
15629;SDS011;7914;50.842;0.166;2023-01-06T12:21:26;1.70;;;1.70;;
15629;SDS011;7914;50.842;0.166;2023-01-06T12:23:57;1.60;;;1.60;;
15629;SDS011;7914;50.842;0.166;2023-01-06T12:26:25;1.63;;;1.63;;
15629;SDS011;7914;50.842;0.166;2023-01-06T12:28:52;1.80;;;1.80;;
15629;SDS011;7914;50.842;0.166;2023-01-06T12:31:30;1.80;;;1.80;;
15629;SDS011;7914;50.842;0.166;2023-01-06T12:34:42;1.70;;;1.70;;
15629;SDS011;7914;50.842;0.166;2023-01-06T12:40:26;1.80;;;1.80;;
15629;SDS011;7914;50.842;0.166;2023-01-06T12:42:58;1.87;;;1.87;;
15629;SDS011;7914;50.842;0.166;2023-01-06T12:46:28;1.70;;;1.70;;
15629;SDS011;7914;50.842;0.166;2023-01-06T12:51:18;1.90;;;1.90;;
15629;SDS011;7914;50.842;0.166;2023-01-06T12:53:56;1.70;;;1.70;;
15629;SDS011;7914;50.842;0.166;2023-01-06T13:05:11;1.80;;;1.80;;
15629;SDS011;7914;50.842;0.166;2023-01-06T13:15:47;1.90;;;1.90;;
15629;SDS011;7914;50.842;0.166;2023-01-06T13:18:17;2.10;;;2.00;;
15629;SDS011;7914;50.842;0.166;2023-01-06T13:21:23;2.20;;;2.10;;
15629;SDS011;7914;50.842;0.166;2023-01-06T13:40:47;3.67;;;3.57;;
15629;SDS011;7914;50.842;0.166;2023-01-06T13:43:48;4.60;;;4.40;;
15629;SDS011;7914;50.842;0.166;2023-01-06T13:46:08;4.70;;;4.50;;
15629;SDS011;7914;50.842;0.166;2023-01-06T13:48:44;4.77;;;4.57;;
15629;SDS011;7914;50.842;0.166;2023-01-06T13:51:14;5.00;;;4.80;;
15629;SDS011;7914;50.842;0.166;2023-01-06T13:53:43;5.70;;;5.50;;
15629;SDS011;7914;50.842;0.166;2023-01-06T14:03:36;6.87;;;6.57;;
15629;SDS011;7914;50.842;0.166;2023-01-06T14:06:02;7.13;;;6.83;;
15629;SDS011;7914;50.842;0.166;2023-01-06T14:08:33;7.30;;;7.00;;
15629;SDS011;7914;50.842;0.166;2023-01-06T14:11:18;8.60;;;8.30;;
15629;SDS011;7914;50.842;0.166;2023-01-06T14:13:51;8.17;;;7.87;;
15629;SDS011;7914;50.842;0.166;2023-01-06T14:16:20;9.00;;;8.60;;
15629;SDS011;7914;50.842;0.166;2023-01-06T14:19:04;9.30;;;8.90;;
15629;SDS011;7914;50.842;0.166;2023-01-06T14:21:33;9.13;;;8.73;;
15629;SDS011;7914;50.842;0.166;2023-01-06T14:24:00;8.40;;;8.10;;
15629;SDS011;7914;50.842;0.166;2023-01-06T14:32:04;9.07;;;8.67;;
15629;SDS011;7914;50.842;0.166;2023-01-06T14:34:34;9.10;;;8.70;;
15629;SDS011;7914;50.842;0.166;2023-01-06T14:37:02;8.90;;;8.50;;
15629;SDS011;7914;50.842;0.166;2023-01-06T14:39:33;8.17;;;7.87;;
15629;SDS011;7914;50.842;0.166;2023-01-06T14:42:03;9.40;;;9.00;;
15629;SDS011;7914;50.842;0.166;2023-01-06T14:44:42;8.37;;;8.07;;
15629;SDS011;7914;50.842;0.166;2023-01-06T14:47:13;8.40;;;8.10;;
15629;SDS011;7914;50.842;0.166;2023-01-06T14:49:45;9.67;;;9.27;;
15629;SDS011;7914;50.842;0.166;2023-01-06T14:52:34;10.07;;;9.67;;
15629;SDS011;7914;50.842;0.166;2023-01-06T14:55:05;11.40;;;10.90;;
15629;SDS011;7914;50.842;0.166;2023-01-06T14:57:35;10.37;;;9.97;;
15629;SDS011;7914;50.842;0.166;2023-01-06T15:02:49;10.83;;;10.40;;
15629;SDS011;7914;50.842;0.166;2023-01-06T15:05:18;10.73;;;10.33;;
15629;SDS011;7914;50.842;0.166;2023-01-06T15:07:56;10.30;;;9.90;;
15629;SDS011;7914;50.842;0.166;2023-01-06T15:10:40;10.83;;;10.37;;
15629;SDS011;7914;50.842;0.166;2023-01-06T15:15:44;10.70;;;10.27;;
15629;SDS011;7914;50.842;0.166;2023-01-06T15:18:16;9.63;;;9.23;;
15629;SDS011;7914;50.842;0.166;2023-01-06T15:20:41;10.50;;;10.10;;
15629;SDS011;7914;50.842;0.166;2023-01-06T15:23:14;11.50;;;11.00;;
15629;SDS011;7914;50.842;0.166;2023-01-06T15:25:42;12.60;;;12.10;;
15629;SDS011;7914;50.842;0.166;2023-01-06T15:28:28;11.90;;;11.40;;
15629;SDS011;7914;50.842;0.166;2023-01-06T15:30:55;13.17;;;12.57;;
15629;SDS011;7914;50.842;0.166;2023-01-06T15:33:23;12.27;;;11.77;;
15629;SDS011;7914;50.842;0.166;2023-01-06T15:35:54;11.93;;;11.43;;
15629;SDS011;7914;50.842;0.166;2023-01-06T15:38:24;12.17;;;11.67;;
15629;SDS011;7914;50.842;0.166;2023-01-06T15:40:53;12.20;;;11.70;;
15629;SDS011;7914;50.842;0.166;2023-01-06T15:43:22;11.70;;;11.20;;
15629;SDS011;7914;50.842;0.166;2023-01-06T15:45:57;11.87;;;11.37;;
15629;SDS011;7914;50.842;0.166;2023-01-06T15:48:27;11.43;;;10.93;;
15629;SDS011;7914;50.842;0.166;2023-01-06T15:50:56;11.37;;;10.87;;
15629;SDS011;7914;50.842;0.166;2023-01-06T15:53:26;11.70;;;11.20;;
15629;SDS011;7914;50.842;0.166;2023-01-06T15:55:56;12.50;;;12.00;;
15629;SDS011;7914;50.842;0.166;2023-01-06T15:58:31;12.83;;;12.27;;
15629;SDS011;7914;50.842;0.166;2023-01-06T16:03:30;14.43;;;13.83;;
15629;SDS011;7914;50.842;0.166;2023-01-06T16:06:03;13.60;;;13.00;;
15629;SDS011;7914;50.842;0.166;2023-01-06T16:08:31;14.80;;;14.10;;
15629;SDS011;7914;50.842;0.166;2023-01-06T16:13:55;14.80;;;14.10;;
15629;SDS011;7914;50.842;0.166;2023-01-06T16:18:55;15.30;;;14.60;;
15629;SDS011;7914;50.842;0.166;2023-01-06T16:21:21;15.30;;;14.60;;
15629;SDS011;7914;50.842;0.166;2023-01-06T16:23:51;14.63;;;13.93;;
15629;SDS011;7914;50.842;0.166;2023-01-06T16:26:19;14.87;;;14.17;;
15629;SDS011;7914;50.842;0.166;2023-01-06T16:28:51;14.77;;;14.07;;
15629;SDS011;7914;50.842;0.166;2023-01-06T16:36:55;13.90;;;13.30;;
15629;SDS011;7914;50.842;0.166;2023-01-06T16:39:23;14.57;;;13.87;;
15629;SDS011;7914;50.842;0.166;2023-01-06T16:44:27;13.57;;;12.97;;
15629;SDS011;7914;50.842;0.166;2023-01-06T16:46:54;14.20;;;13.60;;
15629;SDS011;7914;50.842;0.166;2023-01-06T16:49:20;14.90;;;14.20;;
15629;SDS011;7914;50.842;0.166;2023-01-06T16:51:47;15.43;;;14.73;;
15629;SDS011;7914;50.842;0.166;2023-01-06T16:54:13;15.37;;;14.67;;
15629;SDS011;7914;50.842;0.166;2023-01-06T16:56:42;15.33;;;14.63;;
15629;SDS011;7914;50.842;0.166;2023-01-06T16:59:14;15.00;;;14.30;;
15629;SDS011;7914;50.842;0.166;2023-01-06T17:01:41;15.40;;;14.70;;
15629;SDS011;7914;50.842;0.166;2023-01-06T17:04:09;14.90;;;14.20;;
15629;SDS011;7914;50.842;0.166;2023-01-06T17:06:36;15.40;;;14.70;;
15629;SDS011;7914;50.842;0.166;2023-01-06T17:09:08;14.43;;;13.80;;
15629;SDS011;7914;50.842;0.166;2023-01-06T17:11:49;16.00;;;15.30;;
15629;SDS011;7914;50.842;0.166;2023-01-06T17:14:20;15.57;;;14.87;;
15629;SDS011;7914;50.842;0.166;2023-01-06T17:16:47;14.63;;;13.93;;
15629;SDS011;7914;50.842;0.166;2023-01-06T17:21:48;15.40;;;14.70;;
15629;SDS011;7914;50.842;0.166;2023-01-06T17:24:17;16.07;;;15.30;;
15629;SDS011;7914;50.842;0.166;2023-01-06T17:30:00;15.10;;;14.40;;
15629;SDS011;7914;50.842;0.166;2023-01-06T17:32:35;15.20;;;14.50;;
15629;SDS011;7914;50.842;0.166;2023-01-06T17:35:10;14.37;;;13.77;;
15629;SDS011;7914;50.842;0.166;2023-01-06T17:37:40;15.27;;;14.57;;
15629;SDS011;7914;50.842;0.166;2023-01-06T17:40:27;14.63;;;13.93;;
15629;SDS011;7914;50.842;0.166;2023-01-06T17:43:02;15.00;;;14.30;;
15629;SDS011;7914;50.842;0.166;2023-01-06T17:45:34;14.30;;;13.70;;
15629;SDS011;7914;50.842;0.166;2023-01-06T17:48:01;15.00;;;14.30;;
15629;SDS011;7914;50.842;0.166;2023-01-06T17:50:29;14.53;;;13.90;;
15629;SDS011;7914;50.842;0.166;2023-01-06T17:53:12;14.47;;;13.87;;
15629;SDS011;7914;50.842;0.166;2023-01-06T17:55:58;14.60;;;14.00;;
15629;SDS011;7914;50.842;0.166;2023-01-06T17:58:26;13.87;;;13.27;;